sensor_id;sensor_type;location;lat;lon;timestamp;pressure;altitude;pressure_sealevel;temperature;humidity
57847;BME280;43675;50.030;21.952;2023-06-10T00:02:11;98435.42;;;16.26;84.32
57847;BME280;43675;50.030;21.952;2023-06-10T00:04:38;98432.83;;;16.26;84.34
57847;BME280;43675;50.030;21.952;2023-06-10T00:07:05;98426.91;;;16.25;84.41
57847;BME280;43675;50.030;21.952;2023-06-10T00:09:32;98424.62;;;16.23;84.45
57847;BME280;43675;50.030;21.952;2023-06-10T00:11:58;98419.54;;;16.19;84.59
57847;BME280;43675;50.030;21.952;2023-06-10T00:14:25;98419.56;;;16.16;84.58
57847;BME280;43675;50.030;21.952;2023-06-10T00:16:51;98419.41;;;16.11;84.69
57847;BME280;43675;50.030;21.952;2023-06-10T00:19:18;98420.06;;;16.06;84.72
57847;BME280;43675;50.030;21.952;2023-06-10T00:21:44;98422.68;;;16.02;84.83
57847;BME280;43675;50.030;21.952;2023-06-10T00:24:11;98421.88;;;15.98;84.98
57847;BME280;43675;50.030;21.952;2023-06-10T00:26:41;98424.35;;;15.95;85.02
57847;BME280;43675;50.030;21.952;2023-06-10T00:29:08;98425.34;;;15.93;85.10
57847;BME280;43675;50.030;21.952;2023-06-10T00:31:35;98423.52;;;15.90;85.21
57847;BME280;43675;50.030;21.952;2023-06-10T00:34:02;98428.16;;;15.88;85.44
57847;BME280;43675;50.030;21.952;2023-06-10T00:36:29;98429.42;;;15.90;85.34
57847;BME280;43675;50.030;21.952;2023-06-10T00:38:56;98428.24;;;15.86;85.46
57847;BME280;43675;50.030;21.952;2023-06-10T00:41:23;98426.66;;;15.84;85.61
57847;BME280;43675;50.030;21.952;2023-06-10T00:43:50;98430.41;;;15.81;85.71
57847;BME280;43675;50.030;21.952;2023-06-10T00:46:16;98427.13;;;15.78;85.85
57847;BME280;43675;50.030;21.952;2023-06-10T00:48:45;98428.81;;;15.74;85.93
57847;BME280;43675;50.030;21.952;2023-06-10T00:51:11;98431.92;;;15.71;86.03
57847;BME280;43675;50.030;21.952;2023-06-10T00:53:40;98431.55;;;15.68;86.08
57847;BME280;43675;50.030;21.952;2023-06-10T00:56:07;98437.11;;;15.66;86.22
57847;BME280;43675;50.030;21.952;2023-06-10T00:58:33;98435.21;;;15.61;86.32
57847;BME280;43675;50.030;21.952;2023-06-10T01:01:01;98434.55;;;15.55;86.51
57847;BME280;43675;50.030;21.952;2023-06-10T01:03:27;98436.27;;;15.50;86.65
57847;BME280;43675;50.030;21.952;2023-06-10T01:06:01;98434.45;;;15.45;86.76
57847;BME280;43675;50.030;21.952;2023-06-10T01:08:40;98433.19;;;15.40;86.78
57847;BME280;43675;50.030;21.952;2023-06-10T01:11:18;98434.73;;;15.37;86.93
57847;BME280;43675;50.030;21.952;2023-06-10T01:13:50;98434.42;;;15.35;86.87
57847;BME280;43675;50.030;21.952;2023-06-10T01:16:21;98437.86;;;15.32;86.94
57847;BME280;43675;50.030;21.952;2023-06-10T01:18:48;98436.40;;;15.29;87.11
57847;BME280;43675;50.030;21.952;2023-06-10T01:21:24;98433.66;;;15.26;87.24
57847;BME280;43675;50.030;21.952;2023-06-10T01:23:52;98430.34;;;15.25;87.38
57847;BME280;43675;50.030;21.952;2023-06-10T01:26:25;98430.84;;;15.26;87.49
57847;BME280;43675;50.030;21.952;2023-06-10T01:28:59;98433.35;;;15.27;87.51
57847;BME280;43675;50.030;21.952;2023-06-10T01:31:48;98436.84;;;15.30;87.56
57847;BME280;43675;50.030;21.952;2023-06-10T01:34:18;98438.77;;;15.33;87.66
57847;BME280;43675;50.030;21.952;2023-06-10T01:36:47;98439.37;;;15.37;87.66
57847;BME280;43675;50.030;21.952;2023-06-10T01:39:20;98445.77;;;15.38;87.75
57847;BME280;43675;50.030;21.952;2023-06-10T01:41:49;98445.88;;;15.39;87.83
57847;BME280;43675;50.030;21.952;2023-06-10T01:44:20;98444.48;;;15.39;87.90
57847;BME280;43675;50.030;21.952;2023-06-10T01:46:47;98443.41;;;15.39;87.85
57847;BME280;43675;50.030;21.952;2023-06-10T01:49:14;98443.30;;;15.39;87.87
57847;BME280;43675;50.030;21.952;2023-06-10T01:51:41;98445.16;;;15.37;87.96
57847;BME280;43675;50.030;21.952;2023-06-10T01:54:07;98448.47;;;15.38;88.10
57847;BME280;43675;50.030;21.952;2023-06-10T01:56:34;98447.40;;;15.39;88.14
57847;BME280;43675;50.030;21.952;2023-06-10T01:59:00;98445.83;;;15.38;88.24
57847;BME280;43675;50.030;21.952;2023-06-10T02:01:28;98447.39;;;15.37;88.18
57847;BME280;43675;50.030;21.952;2023-06-10T02:03:55;98444.77;;;15.37;88.12
57847;BME280;43675;50.030;21.952;2023-06-10T02:06:21;98444.27;;;15.35;88.14
57847;BME280;43675;50.030;21.952;2023-06-10T02:08:48;98445.83;;;15.34;88.20
57847;BME280;43675;50.030;21.952;2023-06-10T02:11:14;98447.11;;;15.33;88.27
57847;BME280;43675;50.030;21.952;2023-06-10T02:13:41;98445.77;;;15.33;88.36
57847;BME280;43675;50.030;21.952;2023-06-10T02:16:07;98446.30;;;15.33;88.44
57847;BME280;43675;50.030;21.952;2023-06-10T02:18:34;98444.15;;;15.34;88.52
57847;BME280;43675;50.030;21.952;2023-06-10T02:21:00;98445.42;;;15.37;88.67
57847;BME280;43675;50.030;21.952;2023-06-10T02:23:27;98447.85;;;15.40;88.62
57847;BME280;43675;50.030;21.952;2023-06-10T02:25:53;98446.63;;;15.41;88.71
57847;BME280;43675;50.030;21.952;2023-06-10T02:28:20;98447.33;;;15.42;88.76
57847;BME280;43675;50.030;21.952;2023-06-10T02:30:46;98447.19;;;15.43;88.84
57847;BME280;43675;50.030;21.952;2023-06-10T02:33:13;98444.98;;;15.44;88.85
57847;BME280;43675;50.030;21.952;2023-06-10T02:35:40;98447.53;;;15.45;88.84
57847;BME280;43675;50.030;21.952;2023-06-10T02:38:07;98448.92;;;15.47;88.99
57847;BME280;43675;50.030;21.952;2023-06-10T02:40:34;98448.45;;;15.64;88.82
57847;BME280;43675;50.030;21.952;2023-06-10T02:43:00;98449.81;;;15.74;88.45
57847;BME280;43675;50.030;21.952;2023-06-10T02:45:27;98453.30;;;15.70;88.42
57847;BME280;43675;50.030;21.952;2023-06-10T02:47:53;98455.02;;;15.65;88.74
57847;BME280;43675;50.030;21.952;2023-06-10T02:50:20;98455.69;;;15.63;88.92
57847;BME280;43675;50.030;21.952;2023-06-10T02:52:47;98453.85;;;15.63;89.04
57847;BME280;43675;50.030;21.952;2023-06-10T02:55:13;98452.70;;;15.71;89.03
57847;BME280;43675;50.030;21.952;2023-06-10T02:57:40;98453.33;;;15.69;89.05
57847;BME280;43675;50.030;21.952;2023-06-10T03:00:07;98456.33;;;15.66;89.09
57847;BME280;43675;50.030;21.952;2023-06-10T03:02:34;98460.27;;;15.65;89.28
57847;BME280;43675;50.030;21.952;2023-06-10T03:05:00;98463.23;;;15.65;89.31
57847;BME280;43675;50.030;21.952;2023-06-10T03:07:27;98458.52;;;15.64;89.29
57847;BME280;43675;50.030;21.952;2023-06-10T03:09:53;98465.22;;;15.64;89.21
57847;BME280;43675;50.030;21.952;2023-06-10T03:12:20;98471.13;;;15.64;89.35
57847;BME280;43675;50.030;21.952;2023-06-10T03:14:46;98472.20;;;15.64;89.32
57847;BME280;43675;50.030;21.952;2023-06-10T03:17:13;98479.25;;;15.65;89.36
57847;BME280;43675;50.030;21.952;2023-06-10T03:19:39;98483.26;;;15.66;89.43
57847;BME280;43675;50.030;21.952;2023-06-10T03:22:10;98484.08;;;15.66;89.43
57847;BME280;43675;50.030;21.952;2023-06-10T03:24:37;98482.48;;;15.68;89.36
57847;BME280;43675;50.030;21.952;2023-06-10T03:27:04;98480.90;;;15.71;89.41
57847;BME280;43675;50.030;21.952;2023-06-10T03:29:30;98475.04;;;15.74;89.46
57847;BME280;43675;50.030;21.952;2023-06-10T03:31:57;98471.80;;;15.77;89.37
57847;BME280;43675;50.030;21.952;2023-06-10T03:34:23;98471.86;;;15.81;89.41
57847;BME280;43675;50.030;21.952;2023-06-10T03:36:50;98476.10;;;15.86;89.39
57847;BME280;43675;50.030;21.952;2023-06-10T03:39:16;98478.98;;;15.92;89.45
57847;BME280;43675;50.030;21.952;2023-06-10T03:41:43;98475.98;;;15.98;89.44
57847;BME280;43675;50.030;21.952;2023-06-10T03:44:09;98479.34;;;16.05;89.36
57847;BME280;43675;50.030;21.952;2023-06-10T03:46:36;98477.35;;;16.12;89.31
57847;BME280;43675;50.030;21.952;2023-06-10T03:49:02;98480.46;;;16.19;89.23
57847;BME280;43675;50.030;21.952;2023-06-10T03:51:29;98476.36;;;16.26;89.19
57847;BME280;43675;50.030;21.952;2023-06-10T03:53:56;98476.65;;;16.33;89.05
57847;BME280;43675;50.030;21.952;2023-06-10T03:56:22;98476.55;;;16.40;88.89
57847;BME280;43675;50.030;21.952;2023-06-10T03:58:49;98474.52;;;16.47;88.72
57847;BME280;43675;50.030;21.952;2023-06-10T04:01:16;98469.16;;;16.55;88.70
57847;BME280;43675;50.030;21.952;2023-06-10T04:03:42;98472.38;;;16.67;88.64
57847;BME280;43675;50.030;21.952;2023-06-10T04:06:09;98470.52;;;16.79;88.45
57847;BME280;43675;50.030;21.952;2023-06-10T04:08:35;98474.20;;;16.92;88.23
57847;BME280;43675;50.030;21.952;2023-06-10T04:11:02;98472.61;;;17.05;87.80
57847;BME280;43675;50.030;21.952;2023-06-10T04:13:28;98468.73;;;17.17;87.45
57847;BME280;43675;50.030;21.952;2023-06-10T04:15:55;98466.60;;;17.32;87.21
57847;BME280;43675;50.030;21.952;2023-06-10T04:18:21;98462.07;;;17.50;86.76
57847;BME280;43675;50.030;21.952;2023-06-10T04:20:48;98466.36;;;17.64;86.02
57847;BME280;43675;50.030;21.952;2023-06-10T04:23:14;98468.90;;;17.75;85.20
57847;BME280;43675;50.030;21.952;2023-06-10T04:25:41;98472.95;;;17.85;84.18
57847;BME280;43675;50.030;21.952;2023-06-10T04:28:07;98474.07;;;17.94;83.38
57847;BME280;43675;50.030;21.952;2023-06-10T04:30:34;98475.78;;;18.02;82.73
57847;BME280;43675;50.030;21.952;2023-06-10T04:33:00;98474.92;;;18.08;82.19
57847;BME280;43675;50.030;21.952;2023-06-10T04:35:27;98471.73;;;18.14;81.64
57847;BME280;43675;50.030;21.952;2023-06-10T04:37:54;98472.08;;;18.18;80.98
57847;BME280;43675;50.030;21.952;2023-06-10T04:40:20;98476.15;;;18.16;80.51
57847;BME280;43675;50.030;21.952;2023-06-10T04:42:47;98477.16;;;18.15;80.21
57847;BME280;43675;50.030;21.952;2023-06-10T04:45:13;98482.23;;;18.12;79.90
57847;BME280;43675;50.030;21.952;2023-06-10T04:47:40;98483.67;;;18.09;79.78
57847;BME280;43675;50.030;21.952;2023-06-10T04:50:07;98488.94;;;18.08;79.53
57847;BME280;43675;50.030;21.952;2023-06-10T04:52:33;98486.33;;;18.09;79.31
57847;BME280;43675;50.030;21.952;2023-06-10T04:55:00;98487.86;;;18.10;79.11
57847;BME280;43675;50.030;21.952;2023-06-10T04:57:27;98489.38;;;18.09;78.94
57847;BME280;43675;50.030;21.952;2023-06-10T04:59:53;98493.83;;;18.09;78.87
57847;BME280;43675;50.030;21.952;2023-06-10T05:02:20;98491.77;;;18.07;78.74
57847;BME280;43675;50.030;21.952;2023-06-10T05:04:46;98492.19;;;18.06;78.62
57847;BME280;43675;50.030;21.952;2023-06-10T05:07:13;98492.62;;;18.05;78.50
57847;BME280;43675;50.030;21.952;2023-06-10T05:09:39;98493.00;;;18.04;78.44
57847;BME280;43675;50.030;21.952;2023-06-10T05:12:06;98494.58;;;18.02;78.26
57847;BME280;43675;50.030;21.952;2023-06-10T05:14:33;98495.98;;;18.01;78.16
57847;BME280;43675;50.030;21.952;2023-06-10T05:16:59;98498.30;;;18.02;78.05
57847;BME280;43675;50.030;21.952;2023-06-10T05:19:26;98499.29;;;17.99;78.10
57847;BME280;43675;50.030;21.952;2023-06-10T05:21:53;98502.82;;;17.99;78.08
57847;BME280;43675;50.030;21.952;2023-06-10T05:24:19;98505.80;;;17.98;77.86
57847;BME280;43675;50.030;21.952;2023-06-10T05:26:45;98511.39;;;17.97;77.85
57847;BME280;43675;50.030;21.952;2023-06-10T05:29:12;98512.70;;;17.98;77.87
57847;BME280;43675;50.030;21.952;2023-06-10T05:31:38;98514.45;;;17.99;77.85
57847;BME280;43675;50.030;21.952;2023-06-10T05:34:05;98517.21;;;18.01;77.75
57847;BME280;43675;50.030;21.952;2023-06-10T05:36:31;98519.55;;;18.04;77.68
57847;BME280;43675;50.030;21.952;2023-06-10T05:38:58;98516.48;;;18.09;77.54
57847;BME280;43675;50.030;21.952;2023-06-10T05:41:24;98522.14;;;18.14;77.47
57847;BME280;43675;50.030;21.952;2023-06-10T05:43:51;98525.75;;;18.19;77.43
57847;BME280;43675;50.030;21.952;2023-06-10T05:46:17;98527.12;;;18.25;77.46
57847;BME280;43675;50.030;21.952;2023-06-10T05:48:44;98526.44;;;18.32;77.28
57847;BME280;43675;50.030;21.952;2023-06-10T05:51:11;98524.34;;;18.44;77.34
57847;BME280;43675;50.030;21.952;2023-06-10T05:53:37;98526.09;;;18.61;77.07
57847;BME280;43675;50.030;21.952;2023-06-10T05:56:04;98524.86;;;18.80;76.73
57847;BME280;43675;50.030;21.952;2023-06-10T05:58:31;98526.88;;;18.99;76.28
57847;BME280;43675;50.030;21.952;2023-06-10T06:00:57;98528.55;;;19.20;75.94
57847;BME280;43675;50.030;21.952;2023-06-10T06:03:24;98536.10;;;19.46;75.45
57847;BME280;43675;50.030;21.952;2023-06-10T06:05:50;98532.67;;;19.73;74.79
57847;BME280;43675;50.030;21.952;2023-06-10T06:08:17;98530.04;;;20.06;73.93
57847;BME280;43675;50.030;21.952;2023-06-10T06:10:44;98528.81;;;20.37;72.88
57847;BME280;43675;50.030;21.952;2023-06-10T06:13:11;98525.78;;;20.69;71.77
57847;BME280;43675;50.030;21.952;2023-06-10T06:15:37;98527.77;;;20.95;70.71
57847;BME280;43675;50.030;21.952;2023-06-10T06:18:04;98525.49;;;21.14;69.72
57847;BME280;43675;50.030;21.952;2023-06-10T06:20:30;98526.90;;;21.30;68.92
57847;BME280;43675;50.030;21.952;2023-06-10T06:22:57;98526.46;;;21.41;68.27
57847;BME280;43675;50.030;21.952;2023-06-10T06:25:23;98525.08;;;21.49;67.61
57847;BME280;43675;50.030;21.952;2023-06-10T06:27:50;98526.31;;;21.56;67.36
57847;BME280;43675;50.030;21.952;2023-06-10T06:30:16;98526.19;;;21.62;67.08
57847;BME280;43675;50.030;21.952;2023-06-10T06:32:43;98520.27;;;21.68;66.57
57847;BME280;43675;50.030;21.952;2023-06-10T06:35:09;98519.90;;;21.78;66.58
57847;BME280;43675;50.030;21.952;2023-06-10T06:37:36;98527.58;;;21.84;66.40
57847;BME280;43675;50.030;21.952;2023-06-10T06:40:03;98532.84;;;21.89;65.97
57847;BME280;43675;50.030;21.952;2023-06-10T06:42:29;98530.11;;;21.99;65.48
57847;BME280;43675;50.030;21.952;2023-06-10T06:44:56;98529.75;;;22.15;65.07
57847;BME280;43675;50.030;21.952;2023-06-10T06:47:22;98532.94;;;22.34;64.82
57847;BME280;43675;50.030;21.952;2023-06-10T06:49:49;98533.00;;;22.50;64.16
57847;BME280;43675;50.030;21.952;2023-06-10T06:52:15;98532.85;;;22.60;63.67
57847;BME280;43675;50.030;21.952;2023-06-10T06:54:42;98535.50;;;22.66;63.19
57847;BME280;43675;50.030;21.952;2023-06-10T06:57:08;98527.45;;;22.62;62.90
57847;BME280;43675;50.030;21.952;2023-06-10T06:59:35;98535.13;;;22.53;62.79
57847;BME280;43675;50.030;21.952;2023-06-10T07:02:03;98535.79;;;22.46;62.69
57847;BME280;43675;50.030;21.952;2023-06-10T07:04:29;98540.83;;;22.40;62.78
57847;BME280;43675;50.030;21.952;2023-06-10T07:06:56;98539.66;;;22.34;62.61
57847;BME280;43675;50.030;21.952;2023-06-10T07:09:23;98536.53;;;22.32;62.64
57847;BME280;43675;50.030;21.952;2023-06-10T07:11:49;98534.94;;;22.28;62.38
57847;BME280;43675;50.030;21.952;2023-06-10T07:14:16;98534.66;;;22.20;62.31
57847;BME280;43675;50.030;21.952;2023-06-10T07:16:43;98536.60;;;22.08;62.42
57847;BME280;43675;50.030;21.952;2023-06-10T07:19:09;98534.12;;;21.98;62.51
57847;BME280;43675;50.030;21.952;2023-06-10T07:21:36;98535.98;;;21.91;62.41
57847;BME280;43675;50.030;21.952;2023-06-10T07:24:02;98538.08;;;21.84;62.43
57847;BME280;43675;50.030;21.952;2023-06-10T07:26:29;98538.05;;;21.73;62.49
57847;BME280;43675;50.030;21.952;2023-06-10T07:28:56;98537.59;;;21.59;62.39
57847;BME280;43675;50.030;21.952;2023-06-10T07:31:23;98535.86;;;21.51;62.83
57847;BME280;43675;50.030;21.952;2023-06-10T07:33:49;98543.20;;;21.48;63.02
57847;BME280;43675;50.030;21.952;2023-06-10T07:36:16;98538.68;;;21.48;62.86
57847;BME280;43675;50.030;21.952;2023-06-10T07:38:42;98544.09;;;21.53;62.90
57847;BME280;43675;50.030;21.952;2023-06-10T07:41:09;98541.77;;;21.61;62.59
57847;BME280;43675;50.030;21.952;2023-06-10T07:43:36;98548.25;;;21.84;62.59
57847;BME280;43675;50.030;21.952;2023-06-10T07:46:03;98547.05;;;22.13;61.96
57847;BME280;43675;50.030;21.952;2023-06-10T07:48:30;98548.44;;;22.41;61.29
57847;BME280;43675;50.030;21.952;2023-06-10T07:50:56;98543.91;;;22.68;60.64
57847;BME280;43675;50.030;21.952;2023-06-10T07:53:23;98545.29;;;23.06;60.22
57847;BME280;43675;50.030;21.952;2023-06-10T07:55:49;98557.98;;;23.45;59.00
57847;BME280;43675;50.030;21.952;2023-06-10T07:58:16;98553.23;;;23.70;58.11
57847;BME280;43675;50.030;21.952;2023-06-10T08:00:42;98553.73;;;23.87;57.54
57847;BME280;43675;50.030;21.952;2023-06-10T08:03:09;98553.61;;;24.13;57.28
57847;BME280;43675;50.030;21.952;2023-06-10T08:05:35;98557.36;;;24.41;56.67
57847;BME280;43675;50.030;21.952;2023-06-10T08:08:02;98557.46;;;24.57;55.92
57847;BME280;43675;50.030;21.952;2023-06-10T08:10:29;98559.67;;;24.59;55.74
57847;BME280;43675;50.030;21.952;2023-06-10T08:12:55;98565.51;;;24.58;55.62
57847;BME280;43675;50.030;21.952;2023-06-10T08:15:22;98566.58;;;24.49;54.90
57847;BME280;43675;50.030;21.952;2023-06-10T08:17:48;98570.51;;;24.39;55.05
57847;BME280;43675;50.030;21.952;2023-06-10T08:20:15;98571.95;;;24.41;54.80
57847;BME280;43675;50.030;21.952;2023-06-10T08:22:41;98568.17;;;24.46;54.74
57847;BME280;43675;50.030;21.952;2023-06-10T08:25:08;98570.36;;;24.44;54.61
57847;BME280;43675;50.030;21.952;2023-06-10T08:27:35;98574.02;;;24.45;54.83
57847;BME280;43675;50.030;21.952;2023-06-10T08:30:01;98573.88;;;24.53;54.82
57847;BME280;43675;50.030;21.952;2023-06-10T08:32:29;98570.55;;;24.58;54.39
57847;BME280;43675;50.030;21.952;2023-06-10T08:34:56;98571.27;;;24.58;54.12
57847;BME280;43675;50.030;21.952;2023-06-10T08:37:22;98574.61;;;24.63;53.94
57847;BME280;43675;50.030;21.952;2023-06-10T08:39:49;98575.27;;;24.60;53.63
57847;BME280;43675;50.030;21.952;2023-06-10T08:42:28;98569.16;;;24.62;53.50
57847;BME280;43675;50.030;21.952;2023-06-10T08:44:56;98576.58;;;24.73;53.49
57847;BME280;43675;50.030;21.952;2023-06-10T08:47:24;98580.38;;;24.93;53.67
57847;BME280;43675;50.030;21.952;2023-06-10T08:49:51;98575.66;;;25.11;52.85
57847;BME280;43675;50.030;21.952;2023-06-10T08:52:19;98578.84;;;25.23;52.70
57847;BME280;43675;50.030;21.952;2023-06-10T08:54:57;98571.40;;;25.26;51.81
57847;BME280;43675;50.030;21.952;2023-06-10T08:57:26;98578.56;;;25.20;51.73
57847;BME280;43675;50.030;21.952;2023-06-10T08:59:53;98576.14;;;25.12;51.69
57847;BME280;43675;50.030;21.952;2023-06-10T09:02:20;98569.59;;;25.08;51.64
57847;BME280;43675;50.030;21.952;2023-06-10T09:04:47;98569.27;;;25.08;51.58
57847;BME280;43675;50.030;21.952;2023-06-10T09:07:16;98573.80;;;25.02;51.46
57847;BME280;43675;50.030;21.952;2023-06-10T09:09:44;98577.29;;;24.98;51.41
57847;BME280;43675;50.030;21.952;2023-06-10T09:12:13;98573.09;;;24.92;51.22
57847;BME280;43675;50.030;21.952;2023-06-10T09:14:41;98575.51;;;24.84;50.85
57847;BME280;43675;50.030;21.952;2023-06-10T09:17:08;98572.72;;;24.76;51.39
57847;BME280;43675;50.030;21.952;2023-06-10T09:19:35;98574.69;;;24.77;51.49
57847;BME280;43675;50.030;21.952;2023-06-10T09:22:03;98578.44;;;24.86;51.98
57847;BME280;43675;50.030;21.952;2023-06-10T09:24:30;98576.61;;;25.04;51.61
57847;BME280;43675;50.030;21.952;2023-06-10T09:27:04;98578.75;;;25.19;51.29
57847;BME280;43675;50.030;21.952;2023-06-10T09:29:51;98584.73;;;25.21;50.91
57847;BME280;43675;50.030;21.952;2023-06-10T09:32:18;98578.77;;;25.21;50.91
57847;BME280;43675;50.030;21.952;2023-06-10T09:34:46;98578.89;;;25.31;51.00
57847;BME280;43675;50.030;21.952;2023-06-10T09:37:13;98583.59;;;25.41;51.01
57847;BME280;43675;50.030;21.952;2023-06-10T09:40:01;98580.14;;;25.50;50.24
57847;BME280;43675;50.030;21.952;2023-06-10T09:42:32;98582.14;;;25.56;49.97
57847;BME280;43675;50.030;21.952;2023-06-10T09:44:59;98576.23;;;25.52;49.89
57847;BME280;43675;50.030;21.952;2023-06-10T09:47:26;98577.96;;;25.56;50.15
57847;BME280;43675;50.030;21.952;2023-06-10T09:49:52;98580.49;;;25.69;49.77
57847;BME280;43675;50.030;21.952;2023-06-10T09:52:22;98581.63;;;25.80;49.63
57847;BME280;43675;50.030;21.952;2023-06-10T09:54:50;98578.83;;;25.92;49.55
57847;BME280;43675;50.030;21.952;2023-06-10T09:57:18;98578.73;;;25.99;49.06
57847;BME280;43675;50.030;21.952;2023-06-10T09:59:45;98582.16;;;26.08;48.87
57847;BME280;43675;50.030;21.952;2023-06-10T10:02:15;98584.82;;;26.02;48.53
57847;BME280;43675;50.030;21.952;2023-06-10T10:04:45;98577.55;;;25.88;48.53
57847;BME280;43675;50.030;21.952;2023-06-10T10:07:12;98574.80;;;25.74;48.71
57847;BME280;43675;50.030;21.952;2023-06-10T10:09:40;98576.14;;;25.77;48.91
57847;BME280;43675;50.030;21.952;2023-06-10T10:12:12;98575.33;;;25.92;48.58
57847;BME280;43675;50.030;21.952;2023-06-10T10:14:45;98571.41;;;26.11;48.60
57847;BME280;43675;50.030;21.952;2023-06-10T10:17:15;98572.07;;;26.37;48.50
57847;BME280;43675;50.030;21.952;2023-06-10T10:19:50;98566.48;;;26.67;48.01
57847;BME280;43675;50.030;21.952;2023-06-10T10:22:25;98572.04;;;26.96;47.49
57847;BME280;43675;50.030;21.952;2023-06-10T10:24:59;98565.90;;;27.20;46.84
57847;BME280;43675;50.030;21.952;2023-06-10T10:27:33;98566.21;;;27.31;46.34
57847;BME280;43675;50.030;21.952;2023-06-10T10:30:02;98568.48;;;27.31;46.12
57847;BME280;43675;50.030;21.952;2023-06-10T10:32:33;98569.77;;;27.26;46.06
57847;BME280;43675;50.030;21.952;2023-06-10T10:35:16;98572.44;;;27.24;46.11
57847;BME280;43675;50.030;21.952;2023-06-10T10:37:43;98575.52;;;27.19;46.19
57847;BME280;43675;50.030;21.952;2023-06-10T10:40:10;98580.98;;;27.06;46.19
57847;BME280;43675;50.030;21.952;2023-06-10T10:42:38;98579.09;;;26.91;46.66
57847;BME280;43675;50.030;21.952;2023-06-10T10:45:06;98576.14;;;26.66;46.70
57847;BME280;43675;50.030;21.952;2023-06-10T10:47:34;98577.36;;;26.36;46.89
57847;BME280;43675;50.030;21.952;2023-06-10T10:50:13;98579.49;;;26.13;47.12
57847;BME280;43675;50.030;21.952;2023-06-10T10:55:17;98583.14;;;25.85;47.81
57847;BME280;43675;50.030;21.952;2023-06-10T10:57:43;98583.09;;;25.76;47.75
57847;BME280;43675;50.030;21.952;2023-06-10T11:00:10;98580.66;;;25.71;47.88
57847;BME280;43675;50.030;21.952;2023-06-10T11:02:45;98578.56;;;25.77;47.89
57847;BME280;43675;50.030;21.952;2023-06-10T11:05:15;98572.94;;;25.84;47.81
57847;BME280;43675;50.030;21.952;2023-06-10T11:08:02;98575.11;;;25.83;48.11
57847;BME280;43675;50.030;21.952;2023-06-10T11:10:36;98571.76;;;25.85;48.17
57847;BME280;43675;50.030;21.952;2023-06-10T11:15:39;98568.79;;;25.87;48.04
57847;BME280;43675;50.030;21.952;2023-06-10T11:18:07;98565.65;;;25.87;47.97
57847;BME280;43675;50.030;21.952;2023-06-10T11:31:33;98574.48;;;24.87;48.95
57847;BME280;43675;50.030;21.952;2023-06-10T11:34:04;98574.91;;;24.87;49.32
57847;BME280;43675;50.030;21.952;2023-06-10T11:36:32;98572.48;;;24.94;49.50
57847;BME280;43675;50.030;21.952;2023-06-10T11:39:01;98570.95;;;25.04;49.31
57847;BME280;43675;50.030;21.952;2023-06-10T11:41:29;98573.05;;;25.10;49.29
57847;BME280;43675;50.030;21.952;2023-06-10T11:44:01;98576.70;;;25.13;49.20
57847;BME280;43675;50.030;21.952;2023-06-10T11:46:28;98570.23;;;25.13;49.21
57847;BME280;43675;50.030;21.952;2023-06-10T11:49:00;98574.64;;;25.17;49.37
57847;BME280;43675;50.030;21.952;2023-06-10T11:51:29;98572.64;;;25.11;49.29
57847;BME280;43675;50.030;21.952;2023-06-10T11:53:56;98572.15;;;25.09;49.40
57847;BME280;43675;50.030;21.952;2023-06-10T11:56:25;98576.95;;;25.09;49.82
57847;BME280;43675;50.030;21.952;2023-06-10T11:58:53;98576.50;;;25.08;49.63
57847;BME280;43675;50.030;21.952;2023-06-10T12:01:22;98582.95;;;25.05;49.90
57847;BME280;43675;50.030;21.952;2023-06-10T12:04:03;98576.95;;;25.03;49.74
57847;BME280;43675;50.030;21.952;2023-06-10T12:11:42;98574.91;;;25.11;49.68
57847;BME280;43675;50.030;21.952;2023-06-10T12:14:09;98568.97;;;25.20;50.02
57847;BME280;43675;50.030;21.952;2023-06-10T12:16:38;98567.14;;;25.40;49.35
57847;BME280;43675;50.030;21.952;2023-06-10T12:19:05;98559.05;;;25.54;49.06
57847;BME280;43675;50.030;21.952;2023-06-10T12:21:33;98561.41;;;25.63;49.38
57847;BME280;43675;50.030;21.952;2023-06-10T12:24:05;98564.66;;;25.60;48.73
57847;BME280;43675;50.030;21.952;2023-06-10T12:26:40;98561.73;;;25.50;48.68
57847;BME280;43675;50.030;21.952;2023-06-10T12:29:27;98567.84;;;25.45;48.99
57847;BME280;43675;50.030;21.952;2023-06-10T12:31:54;98558.35;;;25.35;49.31
57847;BME280;43675;50.030;21.952;2023-06-10T12:34:32;98553.95;;;25.21;49.34
57847;BME280;43675;50.030;21.952;2023-06-10T12:37:00;98556.10;;;25.07;49.65
57847;BME280;43675;50.030;21.952;2023-06-10T12:39:27;98556.25;;;24.89;49.76
57847;BME280;43675;50.030;21.952;2023-06-10T12:41:54;98558.30;;;24.74;49.93
57847;BME280;43675;50.030;21.952;2023-06-10T12:44:33;98558.03;;;24.63;50.23
57847;BME280;43675;50.030;21.952;2023-06-10T12:47:06;98550.05;;;24.52;50.69
57847;BME280;43675;50.030;21.952;2023-06-10T12:49:33;98552.95;;;24.45;50.80
57847;BME280;43675;50.030;21.952;2023-06-10T12:52:00;98545.41;;;24.46;50.71
57847;BME280;43675;50.030;21.952;2023-06-10T12:54:27;98544.68;;;24.54;50.78
57847;BME280;43675;50.030;21.952;2023-06-10T12:56:53;98547.10;;;24.57;50.74
57847;BME280;43675;50.030;21.952;2023-06-10T12:59:20;98537.95;;;24.46;50.99
57847;BME280;43675;50.030;21.952;2023-06-10T13:01:51;98541.48;;;24.34;51.08
57847;BME280;43675;50.030;21.952;2023-06-10T13:04:18;98541.25;;;24.28;51.50
57847;BME280;43675;50.030;21.952;2023-06-10T13:06:45;98543.30;;;24.27;51.83
57847;BME280;43675;50.030;21.952;2023-06-10T13:09:15;98543.11;;;24.28;51.73
57847;BME280;43675;50.030;21.952;2023-06-10T13:11:42;98545.48;;;24.37;51.72
57847;BME280;43675;50.030;21.952;2023-06-10T13:14:10;98550.13;;;24.43;51.85
57847;BME280;43675;50.030;21.952;2023-06-10T13:16:37;98548.51;;;24.49;51.72